Αρχική σελίδα
METAR-TAF:

METAR-TAF

Αεροδρόμια :

Διεθνές Αεροδρόμιο του Μπαχρέιν

Μπαχρέιν, Μπαχρέιν

γεωγραφικό πλάτος: 26-16N, γεωγραφικό μήκος: 050-39E, υψόμετρο: 2 μ

Παρών καιρός

Η αναφορά έγινε 17 λεπτά πριν, στις 03:00 UTC
Άνεμος 8 kt από Δ
Θερμοκρασία 33°C
Υγρασία 41%
Πίεση 1002 hPa
Ορατότητα: 3500 μ
Καθαρός ουρανός
εκτεταμένη σκόνη

METAR: OBBI 240300Z 28008KT 3500 DU SKC 33/18 Q1002 BECMG 5000

Χρόνος: 06:17 (03:17 UTC)

Πρόγνωση Καιρού

Η αναφορά έγινε 2 ώρες και 48 λεπτά πριν, στις 00:29 UTC
Η πρόγνωση ισχύει από τις 24 στις 00 UTC έως τις 25 στις 06 UTC
Άνεμος 15 kt από Β/BΔ
Ορατότητα: 8000 μ
Προσωρινά
από 24 στις 00 UTC έως τις 24 στις 05 UTC
Ορατότητα: 3000 μ
εκτεταμένη σκόνη
Καθιστάμενος
από 24 στις 14 UTC έως τις 24 στις 16 UTC
Άνεμος 5 kt από Δ/BΔ

TAF: OBBI 240029Z 2400/2506 34015KT 8000 NSC TEMPO 2400/2405 3000 DU BECMG 2414/2416 29005KT

Μετεωρολογικές αναφορές και προγνώσεις για περισσότερα από 4000 αεροδρόμια (δελτία METAR και TAF).

Οι διαθέσιμοι σταθμοί απεικονίζονται στο χάρτη με κίτρινες και κόκκινες κουκκίδες.

Μετακινήστε το ποντίκι πάνω από τις κουκκίδες για να δείτε το όνομα του σταθμού.

Στη συνέχεια, κάντε κλικ για να δείτε τις μετεωρολογικές αναφορές και τις προγνώσεις καιρού.

Για να αλλάξετε το χάρτη: κάντε κλικ στα πράσινα κουμπιά με τον μαύρο σταυρό για να ζουμάρετε, στο πράσινο κουμπί με την παύλα για να αφαιρέσετε το ζουμ ή στα πράσινα βέλη για να αντιπαραβάλλετε χάρτες.


METAR-TAF: